createdAt,value
2022-12-22T00:03:59.648Z,97549.00
2022-12-22T00:07:47.671Z,97553.00
2022-12-22T00:14:50.319Z,97542.00
2022-12-22T00:22:01.262Z,97546.00
2022-12-22T00:25:49.292Z,97551.00
2022-12-22T00:32:58.611Z,97546.00
2022-12-22T00:40:00.332Z,97533.00
2022-12-22T00:51:18.737Z,97549.00
2022-12-22T00:58:33.125Z,97547.00
2022-12-22T01:02:35.051Z,97543.00
2022-12-22T01:05:50.932Z,97553.00
2022-12-22T01:12:57.582Z,97531.00
2022-12-22T01:19:56.409Z,97519.00
2022-12-22T01:27:15.547Z,97513.00
2022-12-22T01:34:43.700Z,97543.00
2022-12-22T01:38:32.683Z,97539.00
2022-12-22T01:45:42.654Z,97521.00
2022-12-22T01:49:11.378Z,97515.00
2022-12-22T01:56:18.364Z,97496.00
2022-12-22T02:03:35.677Z,97498.00
2022-12-22T02:07:33.771Z,97503.00
2022-12-22T02:14:53.821Z,97481.00
2022-12-22T02:22:13.400Z,97492.00
2022-12-22T02:26:00.181Z,97485.00
2022-12-22T02:33:10.410Z,97494.00
2022-12-22T02:37:16.829Z,97500.00
2022-12-22T02:44:41.073Z,97523.00
2022-12-22T02:48:33.137Z,97518.00
2022-12-22T02:55:40.036Z,97502.00
2022-12-22T03:02:50.410Z,97490.00
2022-12-22T03:06:57.347Z,97492.00
2022-12-22T03:14:03.611Z,97470.00
2022-12-22T03:21:09.638Z,97470.00
2022-12-22T03:28:10.933Z,97461.00
2022-12-22T03:35:03.661Z,97460.00
2022-12-22T03:42:08.384Z,97458.00
2022-12-22T03:57:26.603Z,97421.00
2022-12-22T04:04:23.257Z,97418.00
2022-12-22T04:11:35.462Z,97411.00
2022-12-22T04:18:25.750Z,97406.00
2022-12-22T04:21:14.031Z,97426.00
2022-12-22T04:23:56.885Z,97418.00
2022-12-22T04:30:39.020Z,97401.00
2022-12-22T04:37:27.273Z,97383.00
2022-12-22T04:48:42.744Z,97382.00
2022-12-22T04:59:43.516Z,97380.00
2022-12-22T05:06:30.103Z,97387.00
2022-12-22T05:13:16.947Z,97401.00
2022-12-22T05:20:06.089Z,97390.00
2022-12-22T05:46:03.579Z,97400.00
2022-12-22T05:52:55.603Z,97387.00
2022-12-22T05:59:55.950Z,97364.00
2022-12-22T06:03:20.150Z,97382.00
2022-12-22T06:10:09.733Z,97363.00
2022-12-22T06:17:04.490Z,97372.00
2022-12-22T06:24:02.999Z,97390.00
2022-12-22T06:30:44.599Z,97372.00
2022-12-22T06:37:32.112Z,97379.00
2022-12-22T06:45:06.654Z,97393.00
2022-12-22T06:49:06.413Z,97392.00
2022-12-22T07:04:26.263Z,97381.00
2022-12-22T07:11:52.024Z,97394.00
2022-12-22T07:18:47.025Z,97392.00
2022-12-22T07:25:35.173Z,97390.00
2022-12-22T07:32:22.567Z,97388.00
2022-12-22T07:39:17.519Z,97415.00
2022-12-22T07:50:29.448Z,97416.00
2022-12-22T08:01:31.086Z,97432.00
2022-12-22T08:08:21.099Z,97438.00
2022-12-22T08:15:28.419Z,97412.00
2022-12-22T08:19:19.209Z,97415.00
2022-12-22T08:26:09.448Z,97417.00
2022-12-22T08:32:58.390Z,97420.00
2022-12-22T08:39:48.455Z,97409.00
2022-12-22T08:46:35.878Z,97408.00
2022-12-22T08:54:03.455Z,97418.00
2022-12-22T08:56:37.203Z,97423.00
2022-12-22T09:07:37.713Z,97446.00
2022-12-22T09:14:26.178Z,97462.00
2022-12-22T09:25:33.448Z,97458.00
2022-12-22T09:36:35.874Z,97473.00
2022-12-22T09:43:30.458Z,97462.00
2022-12-22T09:50:23.660Z,97474.00
2022-12-22T10:02:04.208Z,97485.00
2022-12-22T10:05:45.244Z,97490.00
2022-12-22T10:13:50.073Z,97483.00
2022-12-22T10:17:14.371Z,97487.00
2022-12-22T10:24:23.979Z,97491.00
2022-12-22T10:28:30.661Z,97495.00
2022-12-22T10:35:43.685Z,97499.00
2022-12-22T10:38:58.597Z,97485.00
2022-12-22T10:46:34.807Z,97503.00
2022-12-22T11:01:52.230Z,97515.00
2022-12-22T11:08:39.334Z,97502.00
2022-12-22T11:15:37.749Z,97515.00
2022-12-22T11:22:39.761Z,97495.00
2022-12-22T11:30:16.575Z,97487.00
2022-12-22T11:34:05.859Z,97483.00
2022-12-22T11:41:32.803Z,97481.00
2022-12-22T11:45:18.598Z,97497.00
2022-12-22T11:56:25.255Z,97490.00
2022-12-22T12:04:01.605Z,97484.00
2022-12-22T12:11:02.715Z,97495.00
2022-12-22T12:22:18.200Z,97502.00
2022-12-22T12:29:28.704Z,97520.00
2022-12-22T12:33:30.036Z,97523.00
2022-12-22T12:44:55.698Z,97523.00
2022-12-22T12:59:10.343Z,97554.00
2022-12-22T13:06:00.140Z,97572.00
2022-12-22T13:12:55.543Z,97568.00
2022-12-22T13:19:42.484Z,97584.00
2022-12-22T13:23:58.044Z,97591.00
2022-12-22T13:31:38.184Z,97610.00
2022-12-22T13:42:00.041Z,97611.00
2022-12-22T13:48:55.124Z,97596.00
2022-12-22T13:56:25.999Z,97623.00
2022-12-22T14:07:39.372Z,97628.00
2022-12-22T14:10:59.973Z,97638.00
2022-12-22T14:22:22.797Z,97616.00
2022-12-22T14:29:24.721Z,97634.00
2022-12-22T14:36:18.693Z,97634.00
2022-12-22T14:43:21.123Z,97636.00
2022-12-22T14:46:45.698Z,97645.00
2022-12-22T15:02:45.286Z,97659.00
2022-12-22T15:06:46.486Z,97652.00
2022-12-22T15:17:52.752Z,97658.00
2022-12-22T15:24:44.239Z,97659.00
2022-12-22T15:32:20.831Z,97672.00
2022-12-22T15:39:18.256Z,97676.00
2022-12-22T15:46:06.194Z,97674.00
2022-12-22T15:52:57.114Z,97674.00
2022-12-22T15:56:36.693Z,97671.00
2022-12-22T15:59:17.648Z,97655.00
2022-12-22T16:06:09.185Z,97662.00
2022-12-22T16:17:31.251Z,97660.00
2022-12-22T16:20:10.906Z,97669.00
2022-12-22T16:24:05.241Z,97655.00
2022-12-22T16:30:48.335Z,97666.00
2022-12-22T16:37:39.339Z,97667.00
2022-12-22T16:44:28.182Z,97655.00
2022-12-22T16:51:15.128Z,97647.00
2022-12-22T16:58:22.212Z,97638.00
2022-12-22T17:05:47.998Z,97630.00
2022-12-22T17:09:38.450Z,97641.00
2022-12-22T17:19:15.358Z,97594.00
2022-12-22T17:26:00.873Z,97635.00
2022-12-22T17:33:00.863Z,97642.00
2022-12-22T17:39:53.716Z,97605.00
2022-12-22T17:46:41.312Z,97610.00
2022-12-22T17:53:40.911Z,97592.00
2022-12-22T18:00:32.364Z,97591.00
2022-12-22T18:07:22.677Z,97581.00
2022-12-22T18:18:25.516Z,97557.00
2022-12-22T18:25:21.301Z,97575.00
2022-12-22T18:32:04.931Z,97552.00
2022-12-22T18:38:55.747Z,97535.00
2022-12-22T18:45:43.170Z,97523.00
2022-12-22T18:52:26.668Z,97503.00
2022-12-22T18:59:39.348Z,97519.00
2022-12-22T19:06:39.118Z,97501.00
2022-12-22T19:13:39.072Z,97515.00
2022-12-22T19:17:10.970Z,97504.00
2022-12-22T19:23:57.923Z,97482.00
2022-12-22T19:30:45.141Z,97462.00
2022-12-22T19:34:47.160Z,97481.00
2022-12-22T19:37:55.653Z,97476.00
2022-12-22T19:45:08.434Z,97486.00
2022-12-22T19:49:13.957Z,97467.00
2022-12-22T19:56:30.247Z,97461.00
2022-12-22T20:03:24.262Z,97440.00
2022-12-22T20:10:13.535Z,97423.00
2022-12-22T20:21:16.031Z,97425.00
2022-12-22T20:28:05.224Z,97450.00
2022-12-22T20:34:56.802Z,97436.00
2022-12-22T20:41:47.201Z,97422.00
2022-12-22T20:48:45.129Z,97421.00
2022-12-22T20:55:32.969Z,97415.00
2022-12-22T21:02:25.334Z,97395.00
2022-12-22T21:09:17.414Z,97383.00
2022-12-22T21:16:10.512Z,97376.00
2022-12-22T21:19:42.389Z,97374.00
2022-12-22T21:32:20.629Z,97354.00
2022-12-22T21:39:43.572Z,97320.00
2022-12-22T21:43:39.237Z,97351.00
2022-12-22T21:50:38.185Z,97317.00
2022-12-22T21:57:34.272Z,97314.00
2022-12-22T22:04:55.622Z,97282.00
2022-12-22T22:09:00.946Z,97289.00
2022-12-22T22:15:58.585Z,97270.00
2022-12-22T22:22:54.369Z,97262.00
2022-12-22T22:33:38.807Z,97183.00
2022-12-22T22:36:44.055Z,97172.00
2022-12-22T22:43:55.620Z,97185.00
2022-12-22T22:50:53.627Z,97150.00
2022-12-22T23:23:09.222Z,97150.00
2022-12-22T23:30:50.034Z,97123.00
2022-12-22T23:41:02.433Z,97129.00
2022-12-22T23:44:56.220Z,97143.00
2022-12-22T23:51:45.744Z,97140.00
2022-12-22T23:55:31.567Z,97141.00
